Time;durP1;ratioP1;P1;durP2;ratioP2;P2;SDS_P1;SDS_P2;PMS_P1;PMS_P2;Temp;Humidity;BMP_temperature;BMP_pressure;BME280_temperature;BME280_humidity;BME280_pressure;Samples;Min_cycle;Max_cycle;Signal;HPM_P1;HPM_P2
2024/03/18 00:00:14;;;;;;;11.82;8.00;;;;;;;9.65;64.39;99503.47;4868659;29;20051;-93
2024/03/18 00:02:55;;;;;;;14.18;8.30;;;;;;;9.51;64.58;99492.34;4898776;29;20032;-93
2024/03/18 00:05:22;;;;;;;15.20;7.45;;;;;;;9.46;64.86;99486.13;4869724;29;20135;-93
2024/03/18 00:07:51;;;;;;;13.48;8.55;;;;;;;9.57;64.66;99501.25;4869039;29;20082;-93
2024/03/18 00:10:18;;;;;;;13.52;7.38;;;;;;;9.47;64.40;99490.44;4870171;29;20492;-94
2024/03/18 00:12:44;;;;;;;11.65;7.22;;;;;;;9.43;64.47;99483.97;4885150;29;20037;-94
2024/03/18 00:15:13;;;;;;;11.50;7.43;;;;;;;9.42;64.87;99477.78;4868850;29;20096;-93
2024/03/18 00:17:39;;;;;;;9.95;7.10;;;;;;;9.42;64.67;99485.84;4869534;29;20051;-94
2024/03/18 00:20:07;;;;;;;14.82;8.57;;;;;;;9.38;64.65;99475.84;4884426;29;20032;-94
2024/03/18 00:22:35;;;;;;;12.85;8.82;;;;;;;9.32;64.82;99466.97;4868942;29;20036;-93
2024/03/18 00:25:01;;;;;;;12.77;8.27;;;;;;;9.27;64.79;99473.09;4900355;29;20032;-93
2024/03/18 00:27:28;;;;;;;13.20;8.23;;;;;;;9.32;64.81;99491.16;4883759;29;20024;-93
2024/03/18 00:29:55;;;;;;;16.42;8.77;;;;;;;9.13;64.96;99477.28;4869316;29;20081;-93
2024/03/18 00:32:20;;;;;;;12.27;8.45;;;;;;;9.10;65.49;99472.41;4869876;29;20072;-94
2024/03/18 00:34:46;;;;;;;12.95;8.02;;;;;;;9.07;65.71;99471.06;4884532;29;20037;-92
2024/03/18 00:37:12;;;;;;;12.48;7.30;;;;;;;9.15;65.51;99477.00;4885810;29;20045;-93
2024/03/18 00:39:43;;;;;;;10.43;6.95;;;;;;;8.95;65.68;99454.31;4900992;29;20096;-93
2024/03/18 00:42:11;;;;;;;12.20;7.00;;;;;;;9.13;65.41;99476.47;4884844;29;20107;-92
2024/03/18 00:44:37;;;;;;;13.70;7.60;;;;;;;8.95;65.34;99454.31;4885346;29;20116;-93
2024/03/18 00:47:04;;;;;;;10.68;7.30;;;;;;;8.88;65.34;99451.84;4884195;29;20055;-93
2024/03/18 00:49:32;;;;;;;11.48;7.15;;;;;;;8.86;65.35;99456.66;4884941;29;20048;-93
2024/03/18 00:51:58;;;;;;;13.35;6.95;;;;;;;9.00;65.80;99475.81;4900003;29;20045;-94
2024/03/18 00:54:26;;;;;;;10.63;6.63;;;;;;;8.85;65.23;99455.00;4884096;29;20448;-93
2024/03/18 00:56:52;;;;;;;12.05;6.55;;;;;;;8.92;65.53;99459.38;4884717;29;20116;-93
2024/03/18 00:59:20;;;;;;;10.25;7.30;;;;;;;8.92;65.33;99459.38;4899553;29;20427;-93
2024/03/18 01:01:47;;;;;;;10.07;6.88;;;;;;;8.80;65.82;99448.78;4899131;29;20032;-93
2024/03/18 01:04:15;;;;;;;9.52;6.78;;;;;;;8.90;65.88;99459.63;4869047;29;20035;-91
2024/03/18 01:06:44;;;;;;;10.98;6.72;;;;;;;8.74;65.68;99442.56;4884893;29;20115;-92
2024/03/18 01:09:13;;;;;;;13.38;7.25;;;;;;;8.81;65.90;99455.78;4885440;29;20041;-92
2024/03/18 01:11:39;;;;;;;12.25;6.93;;;;;;;8.70;65.45;99434.22;4870260;29;20040;-92
2024/03/18 01:14:05;;;;;;;12.05;6.53;;;;;;;8.78;65.70;99448.22;4885375;29;20033;-92
2024/03/18 01:16:31;;;;;;;10.27;6.90;;;;;;;8.79;66.11;99458.72;4888969;29;20499;-93
2024/03/18 01:18:58;;;;;;;11.77;7.25;;;;;;;8.66;65.45;99434.97;4890098;29;20056;-92
2024/03/18 01:21:24;;;;;;;10.82;7.05;;;;;;;8.66;65.39;99433.09;4891587;29;20028;-94
2024/03/18 01:23:51;;;;;;;10.18;6.72;;;;;;;8.58;65.84;99441.63;4907930;29;20046;-93
2024/03/18 01:26:18;;;;;;;9.98;6.75;;;;;;;8.43;66.08;99422.69;4892736;29;20035;-92
2024/03/18 01:28:46;;;;;;;11.30;6.32;;;;;;;8.50;65.87;99423.28;4890762;29;20079;-94
2024/03/18 01:31:12;;;;;;;10.95;6.72;;;;;;;8.40;66.23;99415.91;4908734;29;20036;-93
2024/03/18 01:33:38;;;;;;;11.60;7.72;;;;;;;8.45;66.13;99424.06;4891833;29;20028;-93
2024/03/18 01:36:04;;;;;;;10.13;6.43;;;;;;;8.40;66.15;99415.91;4891901;29;20035;-93
2024/03/18 01:38:30;;;;;;;10.68;6.38;;;;;;;8.38;65.70;99422.59;4890951;29;20044;-94
2024/03/18 01:40:56;;;;;;;8.55;6.25;;;;;;;8.43;65.83;99428.84;4891088;29;20099;-93
2024/03/18 01:43:26;;;;;;;9.70;6.40;;;;;;;8.46;65.80;99430.22;4907322;29;20028;-93
2024/03/18 01:45:52;;;;;;;9.68;6.43;;;;;;;8.46;65.71;99430.22;4906799;29;20036;-93
2024/03/18 01:48:20;;;;;;;9.57;6.53;;;;;;;8.29;66.08;99415.00;4906585;29;20505;-93
2024/03/18 01:50:47;;;;;;;9.63;5.93;;;;;;;8.21;65.45;99402.03;4908224;29;20032;-93
2024/03/18 01:53:13;;;;;;;8.60;6.32;;;;;;;8.30;65.44;99419.31;4905486;29;20396;-93
2024/03/18 01:55:40;;;;;;;9.95;6.25;;;;;;;8.35;64.96;99420.44;4906272;29;20032;-93
2024/03/18 01:58:06;;;;;;;11.23;6.60;;;;;;;8.29;64.67;99398.09;4906130;29;20034;-92
2024/03/18 02:00:37;;;;;;;10.27;6.13;;;;;;;8.32;64.65;99407.50;4891192;29;20100;-92
2024/03/18 02:03:04;;;;;;;10.05;5.60;;;;;;;8.34;63.99;99400.00;4907345;29;20036;-93
2024/03/18 02:05:31;;;;;;;10.20;5.22;;;;;;;8.37;64.06;99400.31;4892011;29;20028;-92
2024/03/18 02:07:57;;;;;;;9.85;6.07;;;;;;;8.33;64.21;99409.94;4905889;29;20024;-93
2024/03/18 02:10:22;;;;;;;8.27;5.45;;;;;;;8.30;64.41;99405.09;4891123;29;20064;-93
2024/03/18 02:12:49;;;;;;;7.63;5.07;;;;;;;8.30;63.37;99408.59;4907262;29;20031;-92
2024/03/18 02:15:17;;;;;;;7.85;4.82;;;;;;;8.26;64.06;99393.25;4890363;29;20032;-93
2024/03/18 02:17:46;;;;;;;6.22;4.50;;;;;;;8.22;63.80;99406.34;4906723;29;20044;-92
2024/03/18 02:20:13;;;;;;;8.38;4.88;;;;;;;8.23;63.88;99405.25;4905860;29;20107;-93
2024/03/18 02:22:39;;;;;;;12.40;5.60;;;;;;;8.32;64.46;99419.03;4907282;29;20039;-93
2024/03/18 02:25:08;;;;;;;6.07;3.47;;;;;;;8.33;61.21;99412.63;4907412;29;20032;-92
2024/03/18 02:27:36;;;;;;;6.70;3.67;;;;;;;8.39;60.14;99408.94;4905922;29;20505;-94
2024/03/18 02:30:04;;;;;;;4.80;3.60;;;;;;;8.40;60.84;99409.72;4906980;29;20036;-92
2024/03/18 02:32:35;;;;;;;5.38;3.25;;;;;;;8.49;59.81;99416.31;4921995;29;20055;-92
2024/03/18 02:35:05;;;;;;;5.78;3.00;;;;;;;8.46;60.33;99401.50;4905881;29;20031;-91
2024/03/18 02:37:32;;;;;;;7.32;3.88;;;;;;;8.59;60.37;99407.53;4890878;29;20035;-92
2024/03/18 02:40:02;;;;;;;6.97;3.78;;;;;;;8.43;60.82;99393.97;4905900;29;20028;-92
2024/03/18 02:42:27;;;;;;;8.13;4.35;;;;;;;8.51;60.90;99400.78;4905360;29;20032;-93
2024/03/18 02:44:53;;;;;;;4.57;3.60;;;;;;;8.51;61.42;99400.78;4891093;29;20032;-92
2024/03/18 02:47:18;;;;;;;6.80;4.07;;;;;;;8.46;61.33;99398.03;4889455;29;20020;-92
2024/03/18 02:49:45;;;;;;;12.57;4.00;;;;;;;8.37;61.68;99402.19;4904756;29;20059;-93
2024/03/18 02:52:11;;;;;;;7.93;3.63;;;;;;;8.27;61.57;99401.03;4890003;29;20024;-92
2024/03/18 02:54:37;;;;;;;5.15;3.10;;;;;;;8.25;61.55;99378.19;4904635;29;20040;-93
2024/03/18 02:57:04;;;;;;;4.03;3.13;;;;;;;8.29;61.84;99392.72;4906022;29;20106;-93
2024/03/18 02:59:29;;;;;;;6.70;4.28;;;;;;;8.16;61.80;99375.16;4906374;29;20024;-92
2024/03/18 03:01:57;;;;;;;5.32;3.40;;;;;;;8.16;61.86;99382.41;4905388;29;20020;-92
2024/03/18 03:04:25;;;;;;;5.32;3.38;;;;;;;8.15;61.35;99386.13;4906646;29;20028;-93
2024/03/18 03:06:51;;;;;;;8.27;3.05;;;;;;;8.06;61.76;99375.84;4920704;29;20127;-94
2024/03/18 03:09:17;;;;;;;4.85;2.90;;;;;;;8.14;61.46;99387.22;4904342;29;20032;-94
2024/03/18 03:11:43;;;;;;;4.63;2.97;;;;;;;8.11;62.18;99385.81;4900355;29;20031;-93
2024/03/18 03:14:10;;;;;;;6.70;3.63;;;;;;;8.04;62.77;99379.84;4916736;29;20411;-93
2024/03/18 03:16:38;;;;;;;6.65;3.78;;;;;;;8.09;62.99;99406.72;4871410;29;20563;-92
2024/03/18 03:19:05;;;;;;;8.80;4.22;;;;;;;7.99;62.94;99404.75;4893480;29;20048;-90
2024/03/18 03:21:31;;;;;;;5.72;4.18;;;;;;;8.01;63.02;99399.13;4871388;29;20028;-93
2024/03/18 03:23:59;;;;;;;6.22;4.25;;;;;;;7.96;63.14;99404.44;4885489;29;20100;-92
2024/03/18 03:26:25;;;;;;;15.27;5.82;;;;;;;7.66;64.29;99379.69;4887426;29;20020;-93
2024/03/18 03:28:50;;;;;;;11.48;5.30;;;;;;;7.62;64.31;99377.78;4870674;29;20036;-93
2024/03/18 03:31:17;;;;;;;7.47;5.15;;;;;;;7.72;64.11;99388.63;4871170;29;20491;-93
2024/03/18 03:33:43;;;;;;;14.00;4.93;;;;;;;7.69;64.49;99387.22;4870643;29;20111;-92
2024/03/18 03:36:09;;;;;;;9.45;4.95;;;;;;;7.67;64.19;99394.69;4871682;29;20025;-93
2024/03/18 03:38:34;;;;;;;8.52;5.38;;;;;;;7.46;64.52;99361.47;4870767;29;20048;-93
2024/03/18 03:41:01;;;;;;;11.10;6.10;;;;;;;7.43;64.84;99364.66;4870390;29;20025;-93
2024/03/18 03:43:27;;;;;;;8.00;4.93;;;;;;;7.56;64.51;99392.16;4871311;29;20061;-94
2024/03/18 03:45:56;;;;;;;9.18;5.43;;;;;;;7.35;65.15;99369.66;4902505;29;20100;-93
2024/03/18 03:48:22;;;;;;;9.80;5.50;;;;;;;7.28;65.21;99361.75;4900523;29;20119;-93
2024/03/18 03:50:48;;;;;;;10.27;4.65;;;;;;;7.30;64.75;99367.69;4870092;29;20440;-93
2024/03/18 03:53:15;;;;;;;12.35;5.55;;;;;;;7.42;64.80;99387.13;4885593;29;20029;-92
2024/03/18 03:55:40;;;;;;;11.25;4.47;;;;;;;7.32;65.04;99388.88;4887172;29;20451;-92
2024/03/18 03:58:08;;;;;;;10.05;5.00;;;;;;;7.32;64.85;99368.25;4886440;29;20045;-91
2024/03/18 04:00:35;;;;;;;7.45;4.55;;;;;;;7.38;64.98;99388.69;4869771;29;20044;-92
2024/03/18 04:03:00;;;;;;;11.85;5.47;;;;;;;7.30;65.32;99386.44;4884537;29;20045;-92
2024/03/18 04:05:26;;;;;;;8.48;5.00;;;;;;;7.32;65.19;99388.88;4869832;29;20033;-92
2024/03/18 04:07:54;;;;;;;11.40;5.25;;;;;;;7.27;65.15;99369.00;4871063;29;20028;-91
2024/03/18 04:10:20;;;;;;;11.55;5.47;;;;;;;7.20;65.41;99365.69;4901797;29;20506;-93
2024/03/18 04:12:47;;;;;;;8.15;4.85;;;;;;;7.07;65.70;99361.47;4885512;29;20167;-93
2024/03/18 04:15:13;;;;;;;9.40;5.05;;;;;;;7.06;65.19;99375.94;4887393;29;20025;-93
2024/03/18 04:17:42;;;;;;;11.93;5.03;;;;;;;7.11;65.01;99385.09;4879311;29;20054;-93
2024/03/18 04:20:29;;;;;;;7.90;5.22;;;;;;;7.02;65.42;99372.13;4851746;29;20029;-93
2024/03/18 04:22:54;;;;;;;11.20;4.88;;;;;;;6.99;65.42;99375.31;4868760;29;20041;-93
2024/03/18 04:25:23;;;;;;;8.18;4.63;;;;;;;6.94;65.47;99366.38;4852523;29;20028;-93
2024/03/18 04:27:49;;;;;;;9.50;5.32;;;;;;;6.93;65.52;99370.09;4866713;29;20087;-93
2024/03/18 04:30:17;;;;;;;12.10;7.28;;;;;;;6.90;65.06;99370.59;4851577;29;20033;-93
2024/03/18 04:32:43;;;;;;;15.27;4.95;;;;;;;6.86;65.21;99363.03;4868441;29;20041;-93
2024/03/18 04:35:11;;;;;;;9.60;4.60;;;;;;;6.82;65.17;99359.22;4851109;29;20052;-93
2024/03/18 04:37:47;;;;;;;7.68;4.90;;;;;;;6.79;65.21;99380.34;4866911;29;20033;-93
2024/03/18 04:40:14;;;;;;;8.98;4.85;;;;;;;6.86;65.46;99389.00;4866533;29;20119;-93
2024/03/18 04:42:40;;;;;;;14.10;4.60;;;;;;;6.80;65.74;99390.78;4881472;29;20025;-93
2024/03/18 04:45:10;;;;;;;13.10;5.28;;;;;;;6.78;65.47;99386.72;4867449;29;20032;-93
2024/03/18 04:47:39;;;;;;;12.40;4.50;;;;;;;6.72;65.62;99369.75;4868233;29;20542;-92
2024/03/18 04:50:12;;;;;;;16.75;5.35;;;;;;;6.79;65.93;99383.81;4874820;29;20068;-92
2024/03/18 04:52:42;;;;;;;14.15;4.97;;;;;;;6.83;65.58;99389.50;4870607;29;20092;-94
2024/03/18 04:55:08;;;;;;;10.23;4.35;;;;;;;6.82;65.71;99391.34;4876240;29;20437;-93
2024/03/18 04:57:36;;;;;;;18.50;5.20;;;;;;;6.83;65.75;99390.31;4866291;29;20026;-93
2024/03/18 05:00:06;;;;;;;10.07;4.50;;;;;;;6.87;65.18;99386.09;4879571;29;20057;-93
2024/03/18 05:02:36;;;;;;;16.45;5.07;;;;;;;6.75;65.61;99384.56;4867409;29;20043;-92
2024/03/18 05:05:03;;;;;;;20.08;4.82;;;;;;;6.82;65.47;99382.50;4890953;29;20065;-92
2024/03/18 05:07:29;;;;;;;11.80;4.65;;;;;;;6.83;64.74;99387.63;4885782;29;20025;-92
2024/03/18 05:09:58;;;;;;;8.32;4.07;;;;;;;6.93;65.07;99392.34;4877727;29;20041;-93
2024/03/18 05:12:24;;;;;;;6.07;4.25;;;;;;;6.94;64.65;99385.09;4847317;29;20029;-93
2024/03/18 05:14:53;;;;;;;9.02;4.43;;;;;;;6.84;64.60;99364.34;4870188;29;20041;-93
2024/03/18 05:17:36;;;;;;;8.32;4.47;;;;;;;7.05;65.23;99398.38;4856495;29;20053;-92
2024/03/18 05:20:03;;;;;;;6.45;3.75;;;;;;;7.09;64.51;99402.19;4865246;29;20173;-93
2024/03/18 05:22:32;;;;;;;12.00;4.68;;;;;;;7.25;64.47;99397.09;4851565;29;20097;-94
2024/03/18 05:24:58;;;;;;;14.00;5.57;;;;;;;7.08;64.95;99384.53;4866228;29;20124;-92
2024/03/18 05:27:26;;;;;;;12.20;5.60;;;;;;;7.16;65.32;99382.47;4867227;29;20437;-91
2024/03/18 05:33:06;;;;;;;21.27;6.53;;;;;;;7.34;64.81;99392.13;4880410;29;20511;-89
2024/03/18 05:35:32;;;;;;;121.05;12.73;;;;;;;7.36;64.54;99392.69;4872420;29;20119;-91
2024/03/18 05:37:58;;;;;;;13.27;4.80;;;;;;;7.35;64.46;99377.69;4871516;29;20037;-93
2024/03/18 05:40:26;;;;;;;18.40;5.65;;;;;;;7.43;64.02;99370.03;4870707;29;20029;-93
2024/03/18 05:42:52;;;;;;;10.90;5.53;;;;;;;7.55;63.52;99369.88;4893266;29;20101;-94
2024/03/18 05:45:19;;;;;;;14.73;5.85;;;;;;;7.67;63.04;99386.66;4867449;29;20033;-96
2024/03/18 05:47:45;;;;;;;15.15;5.97;;;;;;;7.71;62.87;99380.81;4871329;29;20484;-90
2024/03/18 05:50:11;;;;;;;11.05;4.55;;;;;;;7.83;62.41;99376.94;4872791;29;20029;-94
2024/03/18 05:52:38;;;;;;;12.90;6.00;;;;;;;7.84;62.21;99370.53;4884233;29;20376;-92
2024/03/18 05:55:05;;;;;;;20.08;5.18;;;;;;;7.98;61.45;99364.78;4897553;29;20044;-92
2024/03/18 05:58:19;;;;;;;16.42;4.72;;;;;;;8.30;60.98;99403.22;4898831;29;20036;-93
2024/03/18 06:00:48;;;;;;;15.70;5.45;;;;;;;8.34;60.15;99370.50;4894401;29;20507;-91
2024/03/18 06:03:17;;;;;;;9.35;4.93;;;;;;;8.58;60.05;99379.88;4886279;29;20100;-90
2024/03/18 06:05:50;;;;;;;12.32;5.60;;;;;;;8.68;59.23;99365.75;4908037;29;20037;-91
2024/03/18 06:08:16;;;;;;;6.32;3.53;;;;;;;8.96;58.38;99379.91;4892883;29;20031;-90
2024/03/18 06:10:43;;;;;;;5.93;3.25;;;;;;;9.14;55.65;99370.66;4907425;29;20087;-89
2024/03/18 06:13:09;;;;;;;5.00;3.45;;;;;;;9.25;54.74;99359.69;4921856;29;20107;-88
2024/03/18 06:15:35;;;;;;;10.40;4.38;;;;;;;9.53;53.76;99359.59;4922497;29;20032;-89
2024/03/18 06:18:00;;;;;;;15.20;5.75;;;;;;;9.76;52.31;99363.72;4922810;29;20075;-89
2024/03/18 06:20:27;;;;;;;5.20;2.03;;;;;;;10.05;49.88;99378.31;4902463;29;20031;-89
2024/03/18 06:22:53;;;;;;;4.38;1.98;;;;;;;10.05;49.03;99351.44;4901090;29;20051;-90
2024/03/18 06:28:03;;;;;;;2.30;1.70;;;;;;;10.57;47.03;99362.31;4914478;29;20036;-90
2024/03/18 06:34:48;;;;;;;3.38;1.90;;;;;;;10.98;45.58;99363.09;4852924;29;20038;-90
2024/03/18 06:37:27;;;;;;;;;;;;;;;;;;;;;
2024/03/18 06:40:28;;;;;;;5.55;1.70;;;;;;;11.12;44.25;99356.09;4796053;29;20113;-91
2024/03/18 06:43:06;;;;;;;5.47;1.80;;;;;;;11.42;44.85;99367.06;4824763;29;20071;-91
2024/03/18 06:45:33;;;;;;;4.13;2.10;;;;;;;11.48;44.48;99350.59;4802186;29;20120;-90
2024/03/18 06:48:06;;;;;;;4.25;1.92;;;;;;;11.58;43.83;99348.94;4785136;29;20075;-91
2024/03/18 06:51:17;;;;;;;3.50;1.85;;;;;;;11.55;43.84;99330.63;4816182;29;20043;-93
2024/03/18 06:53:42;;;;;;;4.47;2.05;;;;;;;11.76;43.05;99342.13;4805921;29;20107;-89
2024/03/18 06:56:53;;;;;;;7.00;3.00;;;;;;;11.82;43.42;99335.63;4824958;29;20093;-96
2024/03/18 06:59:12;;;;;;;4.80;2.70;;;;;;;12.00;43.60;99353.09;4877876;29;20504;-91
2024/03/18 07:01:38;;;;;;;4.50;2.10;;;;;;;12.06;42.56;99343.91;4851466;29;20082;-92
2024/03/18 07:14:28;;;;;;;3.33;1.65;;;;;;;12.19;42.63;99315.47;4886945;29;20032;-94
2024/03/18 07:16:57;;;;;;;2.00;1.60;;;;;;;12.42;42.71;99338.25;4850165;29;20125;-94
2024/03/18 07:19:24;;;;;;;3.15;1.90;;;;;;;12.64;43.52;99345.94;4819367;29;20066;-96
2024/03/18 07:26:06;;;;;;;2.95;1.80;;;;;;;12.79;42.14;99320.69;4851176;29;20092;-93
2024/03/18 07:29:19;;;;;;;;;;;;;;;;;;;;;
2024/03/18 07:31:56;;;;;;;;;;;;;;;;;;;;;
2024/03/18 07:35:34;;;;;;;4.22;2.53;;;;;;;13.17;41.89;99307.31;4827681;29;20061;-96
2024/03/18 07:38:33;;;;;;;;;;;;;;;;;;;;;
2024/03/18 07:41:10;;;;;;;16.27;4.90;;;;;;;13.49;42.13;99321.03;4745406;30;20123;-96
2024/03/18 07:43:47;;;;;;;3.45;2.08;;;;;;;13.33;40.94;99303.38;4746176;30;20040;-96
2024/03/18 07:46:16;;;;;;;6.15;2.10;;;;;;;13.34;40.67;99300.41;4769694;30;20038;-95
2024/03/18 07:48:58;;;;;;;7.22;3.45;;;;;;;13.30;40.60;99323.69;4790032;29;20061;-95
2024/03/18 07:52:09;;;;;;;;;;;;;;;;;;;;;
2024/03/18 07:54:45;;;;;;;6.15;2.10;;;;;;;13.24;41.08;99335.63;4923501;29;20122;-95
2024/03/18 07:57:52;;;;;;;3.97;1.90;;;;;;;13.23;40.57;99309.66;4884640;29;20068;-95
2024/03/18 08:13:16;;;;;;;2.30;1.52;;;;;;;13.22;39.35;99297.25;5061793;23;20043;-95
2024/03/18 08:15:55;;;;;;;4.68;1.70;;;;;;;13.17;39.84;99291.09;4891498;29;20041;-93
2024/03/18 08:18:20;;;;;;;3.78;1.60;;;;;;;13.25;39.32;99293.97;4902532;29;20033;-96
2024/03/18 08:20:49;;;;;;;3.58;1.65;;;;;;;13.31;39.67;99273.91;4884905;29;20407;-94
2024/03/18 08:23:17;;;;;;;5.07;1.55;;;;;;;13.41;40.26;99289.22;4901795;29;20045;-95
2024/03/18 08:25:45;;;;;;;2.67;1.80;;;;;;;13.59;39.72;99301.16;4907940;29;20035;-95
2024/03/18 08:28:20;;;;;;;3.05;2.22;;;;;;;13.54;39.93;99290.41;4899963;29;20028;-93
2024/03/18 08:30:51;;;;;;;3.42;2.33;;;;;;;13.61;40.70;99279.22;4900972;29;20032;-94
2024/03/18 08:33:20;;;;;;;4.53;2.08;;;;;;;13.61;40.56;99277.31;4889897;29;20039;-94
2024/03/18 08:35:45;;;;;;;3.97;2.10;;;;;;;13.65;40.75;99291.09;4894949;29;20020;-94
2024/03/18 08:38:11;;;;;;;3.00;1.80;;;;;;;13.73;40.95;99266.09;4904676;29;20172;-94
2024/03/18 08:40:42;;;;;;;4.18;1.52;;;;;;;13.94;40.43;99291.78;4903351;29;20443;-93
2024/03/18 08:43:10;;;;;;;3.33;1.75;;;;;;;13.81;40.18;99286.28;4903970;29;20024;-93
2024/03/18 08:45:54;;;;;;;3.20;1.70;;;;;;;13.79;40.72;99267.63;4890285;29;20495;-94
2024/03/18 08:48:20;;;;;;;6.13;2.08;;;;;;;13.93;40.05;99271.22;4903722;29;20573;-91
2024/03/18 08:50:45;;;;;;;67.65;35.75;;;;;;;13.91;40.08;99276.09;4920871;29;20024;-93
2024/03/18 08:53:14;;;;;;;4.82;2.38;;;;;;;13.95;39.97;99271.72;4889122;29;20060;-93
2024/03/18 08:55:43;;;;;;;3.92;1.85;;;;;;;13.95;40.04;99257.38;4892856;29;20080;-95
2024/03/18 08:58:09;;;;;;;3.75;1.98;;;;;;;14.01;39.08;99264.34;4892895;29;20024;-93
2024/03/18 09:00:50;;;;;;;4.63;2.85;;;;;;;14.17;38.11;99264.09;4903416;29;20521;-91
2024/03/18 09:03:16;;;;;;;2.58;1.60;;;;;;;14.25;36.78;99260.72;4913422;29;20024;-92
2024/03/18 09:05:53;;;;;;;3.78;2.20;;;;;;;14.25;36.80;99249.88;4906123;29;20032;-92
2024/03/18 09:08:20;;;;;;;2.80;1.55;;;;;;;14.23;36.51;99236.63;4888617;29;20187;-91
2024/03/18 09:10:45;;;;;;;3.35;1.40;;;;;;;14.30;37.03;99256.03;4903682;29;20438;-95
2024/03/18 09:13:14;;;;;;;3.28;1.40;;;;;;;14.38;36.05;99251.03;4898977;29;20067;-93
2024/03/18 09:15:40;;;;;;;5.13;1.80;;;;;;;14.37;36.17;99242.09;4901695;29;20356;-91
2024/03/18 09:18:17;;;;;;;3.17;1.85;;;;;;;14.30;35.76;99238.97;4893555;29;20116;-93
2024/03/18 09:20:42;;;;;;;3.97;1.98;;;;;;;14.35;36.12;99238.88;4902184;29;20032;-92
2024/03/18 09:23:09;;;;;;;2.47;1.30;;;;;;;14.35;35.56;99253.22;4889431;29;20032;-89
2024/03/18 09:25:38;;;;;;;5.50;2.10;;;;;;;14.33;35.48;99238.38;4927066;29;20522;-91
2024/03/18 09:28:04;;;;;;;3.42;1.42;;;;;;;14.30;35.50;99234.34;4893401;29;20108;-92
2024/03/18 09:30:38;;;;;;;22.55;10.85;;;;;;;14.40;34.88;99240.69;4896349;29;20029;-93
2024/03/18 09:33:04;;;;;;;2.80;1.10;;;;;;;14.41;35.49;99239.59;4892052;29;20032;-94
2024/03/18 09:35:38;;;;;;;6.50;1.33;;;;;;;14.44;35.32;99225.44;4897513;29;20096;-96
2024/03/18 09:38:21;;;;;;;5.95;1.63;;;;;;;14.44;36.08;99233.56;4895675;29;20115;-95
2024/03/18 09:40:50;;;;;;;2.60;1.38;;;;;;;14.51;35.85;99221.25;4911511;29;20056;-94
2024/03/18 09:43:20;;;;;;;2.13;1.20;;;;;;;14.57;35.32;99224.72;4905850;29;20028;-94
2024/03/18 09:45:46;;;;;;;4.57;1.73;;;;;;;14.74;36.06;99233.06;4915785;29;20114;-96
2024/03/18 09:48:17;;;;;;;2.35;1.08;;;;;;;14.72;36.02;99224.44;4899570;29;20063;-95
2024/03/18 09:51:02;;;;;;;1.90;1.40;;;;;;;14.84;36.40;99228.56;4890414;29;20470;-96
2024/03/18 09:53:31;;;;;;;4.90;1.63;;;;;;;14.83;36.02;99207.97;4905880;29;20114;-96
2024/03/18 09:56:02;;;;;;;2.83;1.50;;;;;;;14.77;35.85;99209.19;4897577;29;20024;-93
2024/03/18 09:58:58;;;;;;;;;;;;;;;;;;;;;
2024/03/18 10:05:03;;;;;;;;;;;;;;;;;;;;;
2024/03/18 10:07:40;;;;;;;4.13;1.35;;;;;;;15.01;36.49;99185.38;4938078;29;20118;-94
2024/03/18 10:10:25;;;;;;;2.20;1.20;;;;;;;15.12;36.27;99189.47;4898570;29;20500;-92
2024/03/18 10:12:51;;;;;;;8.45;1.88;;;;;;;15.12;36.64;99173.22;4872429;29;20049;-95
2024/03/18 10:15:19;;;;;;;4.43;1.50;;;;;;;15.26;36.55;99203.03;4904397;29;20063;-96
2024/03/18 10:18:00;;;;;;;2.35;1.17;;;;;;;15.13;36.55;99166.69;4905530;29;20033;-96
2024/03/18 10:20:26;;;;;;;3.13;1.40;;;;;;;15.36;36.71;99205.53;4906576;29;20032;-94
2024/03/18 10:23:20;;;;;;;2.78;1.35;;;;;;;15.35;37.17;99165.16;4875737;29;20092;-93
2024/03/18 10:25:46;;;;;;;6.45;1.52;;;;;;;15.56;36.55;99179.06;4883205;29;20124;-93
2024/03/18 10:28:13;;;;;;;3.90;2.15;;;;;;;15.49;36.87;99160.47;4887058;29;20048;-93
2024/03/18 10:30:44;;;;;;;3.58;1.90;;;;;;;15.50;37.13;99155.84;4861177;29;20094;-96
2024/03/18 10:33:10;;;;;;;2.45;1.60;;;;;;;15.68;36.95;99173.09;4892535;29;20523;-93
2024/03/18 10:35:38;;;;;;;3.70;1.83;;;;;;;15.35;37.20;99149.66;4902684;29;20051;-93
2024/03/18 10:38:11;;;;;;;2.47;1.70;;;;;;;15.53;37.19;99172.34;4886035;29;20507;-93
2024/03/18 10:40:38;;;;;;;3.67;1.70;;;;;;;15.44;37.88;99143.50;4867431;29;20048;-94
2024/03/18 10:43:14;;;;;;;2.72;1.70;;;;;;;15.58;37.39;99152.41;4877937;29;20053;-95
2024/03/18 10:46:05;;;;;;;4.82;1.88;;;;;;;15.59;37.46;99148.59;4878622;29;20070;-95
2024/03/18 10:48:34;;;;;;;5.43;1.40;;;;;;;15.57;37.08;99129.09;4873345;29;20096;-93
2024/03/18 10:51:05;;;;;;;3.42;1.60;;;;;;;15.46;37.19;99128.56;4908144;29;20032;-96
2024/03/18 10:56:56;;;;;;;3.70;1.40;;;;;;;15.67;37.54;99128.88;4908837;29;20068;-94
2024/03/18 10:59:22;;;;;;;3.15;1.38;;;;;;;15.80;37.32;99135.38;4919039;29;20035;-95
2024/03/18 11:01:48;;;;;;;2.50;1.30;;;;;;;15.73;37.31;99107.88;4916943;29;20114;-94
2024/03/18 11:04:28;;;;;;;2.85;1.35;;;;;;;16.01;36.57;99130.22;4912974;29;20114;-93
2024/03/18 11:07:36;;;;;;;3.75;1.65;;;;;;;15.81;36.62;99106.31;4910825;29;20024;-95
2024/03/18 11:10:11;;;;;;;2.03;1.30;;;;;;;15.99;36.90;99123.50;4891115;29;20059;-93
2024/03/18 11:12:53;;;;;;;3.15;1.40;;;;;;;15.94;37.05;99129.88;4893957;29;20465;-94
2024/03/18 11:15:19;;;;;;;5.78;1.63;;;;;;;16.01;36.42;99100.34;4878887;29;20060;-93
2024/03/18 11:17:59;;;;;;;2.42;1.30;;;;;;;16.00;36.67;99087.91;4872075;29;20096;-92
2024/03/18 11:20:30;;;;;;;2.85;1.20;;;;;;;16.05;36.71;99098.63;4889852;29;20428;-94
2024/03/18 11:23:32;;;;;;;1.30;1.05;;;;;;;16.36;36.63;99119.56;4877562;29;20028;-96
2024/03/18 11:30:05;;;;;;;3.35;1.38;;;;;;;16.39;36.55;99077.34;4910401;29;20043;-96
2024/03/18 11:32:52;;;;;;;1.67;1.15;;;;;;;16.40;36.59;99070.81;4879210;29;20029;-94
2024/03/18 11:35:41;;;;;;;1.88;1.17;;;;;;;16.67;36.58;99073.28;4889756;29;20096;-95
2024/03/18 11:41:46;;;;;;;1.58;1.13;;;;;;;16.92;36.23;99081.84;4903297;29;20036;-96
2024/03/18 11:50:48;;;;;;;5.35;1.75;;;;;;;16.77;35.81;99043.09;4908610;29;19985;-94
2024/03/18 11:53:44;;;;;;;;;;;;;;;;;;;;;
2024/03/18 11:56:21;;;;;;;2.05;1.35;;;;;;;17.07;35.48;99083.31;4874540;29;20496;-93
2024/03/18 11:59:02;;;;;;;2.08;1.40;;;;;;;17.11;35.66;99082.34;4893717;29;20029;-96
2024/03/18 12:02:02;;;;;;;;;;;;;;;;;;;;;
2024/03/18 12:04:33;;;;;;;3.15;1.27;;;;;;;17.06;36.04;99051.81;4866629;29;20068;-94
2024/03/18 12:07:06;;;;;;;3.90;1.35;;;;;;;17.05;35.66;99039.31;4858380;29;20033;-96
2024/03/18 12:09:40;;;;;;;3.67;1.42;;;;;;;17.33;35.95;99070.53;4878448;29;20013;-96
2024/03/18 12:15:43;;;;;;;;;;;;;;;;;;;;;
2024/03/18 12:19:05;;;;;;;;;;;;;;;;;;;;;
2024/03/18 12:29:00;;;;;;;;;;;;;;;;;;;;;
2024/03/18 12:32:24;;;;;;;28.20;1.88;;;;;;;17.24;35.73;99020.72;4807456;29;20141;-96
2024/03/18 12:34:52;;;;;;;3.67;1.65;;;;;;;17.22;35.84;99022.19;4808850;29;20042;-94
2024/03/18 12:37:56;;;;;;;5.68;1.38;;;;;;;17.53;35.24;99055.44;4848445;29;20034;-94
2024/03/18 12:40:23;;;;;;;4.40;1.77;;;;;;;17.25;35.09;99024.28;4832922;29;20497;-95
2024/03/18 12:43:07;;;;;;;3.35;1.80;;;;;;;17.13;35.66;99035.78;4861793;29;20127;-90
2024/03/18 12:46:12;;;;;;;;;;;;;;;;;;;;;
2024/03/18 12:48:45;;;;;;;3.17;1.52;;;;;;;16.91;35.52;99029.38;4862971;29;20109;-94
2024/03/18 12:51:16;;;;;;;3.05;1.50;;;;;;;16.70;35.52;99021.00;4864505;29;20128;-94
2024/03/18 12:54:49;;;;;;;2.60;1.50;;;;;;;16.66;35.28;99001.00;4879005;29;20447;-95
2024/03/18 13:01:17;;;;;;;2.92;1.50;;;;;;;16.82;35.29;99033.22;4868236;29;20045;-93
2024/03/18 13:08:00;;;;;;;2.63;1.40;;;;;;;16.73;35.54;99028.53;4851780;29;20041;-93
2024/03/18 13:17:11;;;;;;;2.58;1.30;;;;;;;16.88;35.42;99019.13;4800163;29;20740;-93
2024/03/18 13:23:23;;;;;;;1.80;1.30;;;;;;;16.82;35.78;99023.13;4848020;29;20074;-92
2024/03/18 13:25:59;;;;;;;1.48;1.20;;;;;;;16.51;35.98;99020.50;4835192;29;20132;-94
2024/03/18 13:28:47;;;;;;;3.63;1.30;;;;;;;16.22;35.87;99005.53;4832729;29;20025;-96
2024/03/18 13:31:18;;;;;;;1.65;1.02;;;;;;;16.11;36.06;98994.16;4872972;29;20579;-91
2024/03/18 13:33:43;;;;;;;1.90;1.25;;;;;;;16.20;36.26;98991.47;4873444;29;20483;-89
2024/03/18 13:36:09;;;;;;;3.38;1.52;;;;;;;16.26;35.86;99014.66;4882820;29;20115;-90
2024/03/18 13:38:34;;;;;;;6.28;1.50;;;;;;;16.00;35.95;98984.72;4866346;29;20032;-92
2024/03/18 13:41:00;;;;;;;3.38;1.20;;;;;;;16.16;36.30;99015.78;4901457;29;20032;-91